Time;durP1;ratioP1;P1;durP2;ratioP2;P2;SDS_P1;SDS_P2;PMS_P1;PMS_P2;Temp;Humidity;BMP_temperature;BMP_pressure;BME280_temperature;BME280_humidity;BME280_pressure;Samples;Min_cycle;Max_cycle;Signal;HPM_P1;HPM_P2
2022/10/25 00:02:22;;;;;;;9.80;0.73;;;13.70;99.90;;;;;;5022898;28;20047;-93
2022/10/25 00:04:48;;;;;;;4.13;0.90;;;13.70;99.90;;;;;;5024275;28;20025;-91
2022/10/25 00:07:14;;;;;;;5.70;0.80;;;13.60;99.90;;;;;;5025180;28;20080;-92
2022/10/25 00:09:40;;;;;;;3.42;0.95;;;13.50;99.90;;;;;;5021637;28;20037;-94
2022/10/25 00:12:06;;;;;;;3.70;0.65;;;13.50;99.90;;;;;;5018437;28;20080;-94
2022/10/25 00:14:32;;;;;;;2.55;0.82;;;13.40;99.90;;;;;;5023965;28;20069;-91
2022/10/25 00:16:58;;;;;;;5.15;0.80;;;13.50;99.90;;;;;;5023717;28;20041;-91
2022/10/25 00:19:24;;;;;;;4.85;0.90;;;13.40;99.90;;;;;;5023548;28;20402;-90
2022/10/25 00:21:49;;;;;;;7.38;1.00;;;13.40;99.90;;;;;;5024014;28;20029;-90
2022/10/25 00:24:15;;;;;;;6.00;0.93;;;13.40;99.90;;;;;;5023047;28;20026;-91
2022/10/25 00:26:41;;;;;;;6.63;0.85;;;13.40;99.90;;;;;;5027249;28;20088;-94
2022/10/25 00:29:08;;;;;;;4.25;0.77;;;13.40;99.90;;;;;;5022593;28;20057;-91
2022/10/25 00:31:35;;;;;;;3.90;0.95;;;13.40;99.90;;;;;;5020828;28;20456;-93
2022/10/25 00:34:01;;;;;;;28.65;1.30;;;13.40;99.90;;;;;;5013883;28;20100;-90
2022/10/25 00:36:26;;;;;;;10.40;0.77;;;13.40;99.90;;;;;;5026868;28;20033;-91
2022/10/25 00:38:54;;;;;;;5.65;0.95;;;13.30;99.90;;;;;;5030887;28;20025;-92
2022/10/25 00:41:25;;;;;;;2.45;0.98;;;13.40;99.90;;;;;;5026238;28;20052;-92
2022/10/25 00:44:15;;;;;;;0.80;0.68;;;13.40;99.90;;;;;;5026349;28;20428;-93
2022/10/25 00:46:42;;;;;;;9.95;1.63;;;13.40;99.90;;;;;;5022133;28;20049;-91
2022/10/25 00:49:17;;;;;;;8.10;1.20;;;13.30;99.90;;;;;;5028434;28;20498;-91
2022/10/25 00:51:50;;;;;;;13.65;1.00;;;13.30;99.90;;;;;;5030679;28;20032;-91
2022/10/25 00:54:22;;;;;;;8.20;1.17;;;13.30;99.90;;;;;;5022737;28;20392;-90
2022/10/25 00:56:50;;;;;;;9.05;1.35;;;13.30;99.90;;;;;;5025168;28;20041;-90
2022/10/25 00:59:19;;;;;;;7.30;1.20;;;13.30;99.90;;;;;;5021337;28;20033;-89
2022/10/25 01:01:45;;;;;;;4.43;1.42;;;13.30;99.90;;;;;;5031800;28;20073;-92
2022/10/25 01:04:14;;;;;;;12.25;1.42;;;13.30;99.90;;;;;;5024089;28;20033;-90
2022/10/25 01:06:44;;;;;;;9.98;1.25;;;13.30;99.90;;;;;;5006856;28;20033;-92
2022/10/25 01:09:14;;;;;;;4.95;0.98;;;13.40;99.90;;;;;;5021774;28;20030;-92
2022/10/25 01:11:39;;;;;;;12.77;2.10;;;13.40;99.90;;;;;;5015567;28;20050;-92
2022/10/25 01:14:07;;;;;;;26.25;2.90;;;13.40;99.90;;;;;;5014682;28;20099;-91
2022/10/25 01:16:47;;;;;;;13.45;1.58;;;13.50;99.90;;;;;;5028439;28;20056;-90
2022/10/25 01:19:32;;;;;;;25.58;3.25;;;13.50;99.90;;;;;;5022695;28;20021;-91
2022/10/25 01:22:05;;;;;;;9.05;1.80;;;13.60;99.90;;;;;;5003858;28;20087;-93
2022/10/25 01:24:52;;;;;;;12.75;2.00;;;13.60;99.90;;;;;;5023722;28;20025;-91
2022/10/25 01:27:29;;;;;;;19.85;2.38;;;13.70;99.90;;;;;;5025420;28;20029;-90
2022/10/25 01:30:03;;;;;;;17.15;3.53;;;13.70;99.90;;;;;;5002001;28;20033;-92
2022/10/25 01:32:56;;;;;;;11.15;2.42;;;13.70;99.90;;;;;;5028911;28;20308;-91
2022/10/25 01:35:26;;;;;;;13.32;1.60;;;13.70;99.90;;;;;;5031642;28;20036;-92
2022/10/25 01:38:17;;;;;;;9.75;2.45;;;13.70;99.90;;;;;;5018015;28;20034;-91
2022/10/25 01:41:07;;;;;;;15.98;2.50;;;13.70;99.90;;;;;;5020379;28;20048;-93
2022/10/25 01:44:14;;;;;;;9.10;2.67;;;13.70;99.90;;;;;;5018188;28;20113;-92
2022/10/25 01:47:02;;;;;;;;;;;13.70;99.90;;;;;;4965759;28;20022;-90
2022/10/25 01:49:56;;;;;;;13.88;2.72;;;13.70;99.90;;;;;;5013226;28;19909;-92
2022/10/25 01:52:23;;;;;;;7.43;1.38;;;13.80;99.90;;;;;;4994949;28;20046;-92
2022/10/25 01:54:50;;;;;;;11.85;2.17;;;13.80;99.90;;;;;;5021558;28;20083;-90
2022/10/25 01:57:50;;;;;;;16.52;2.45;;;13.70;99.90;;;;;;5021811;28;20112;-90
2022/10/25 02:00:19;;;;;;;15.32;1.70;;;13.80;99.90;;;;;;4999319;28;20471;-92
2022/10/25 02:03:10;;;;;;;12.20;2.17;;;13.80;99.90;;;;;;5020762;28;20034;-89
2022/10/25 02:06:04;;;;;;;20.33;2.33;;;13.80;99.90;;;;;;5028890;28;20037;-89
2022/10/25 02:08:47;;;;;;;13.73;2.38;;;13.70;99.90;;;;;;5020802;28;20022;-89
2022/10/25 02:11:26;;;;;;;9.55;2.22;;;13.70;99.90;;;;;;5027958;28;20046;-90
2022/10/25 02:14:03;;;;;;;13.73;2.28;;;13.80;99.90;;;;;;5021103;28;20358;-91
2022/10/25 02:16:39;;;;;;;11.85;2.30;;;13.80;99.90;;;;;;5028337;28;20055;-91
2022/10/25 02:19:08;;;;;;;24.58;3.17;;;13.80;99.90;;;;;;5020757;28;20426;-91
2022/10/25 02:21:35;;;;;;;15.60;2.05;;;13.90;99.90;;;;;;5030782;28;20034;-92
2022/10/25 02:24:07;;;;;;;14.77;2.42;;;13.90;99.90;;;;;;5019448;28;20033;-90
2022/10/25 02:26:34;;;;;;;19.00;2.75;;;13.90;99.90;;;;;;5029949;28;20079;-90
2022/10/25 02:29:02;;;;;;;14.45;2.15;;;13.90;99.90;;;;;;5022401;28;20450;-90
2022/10/25 02:31:29;;;;;;;16.65;2.22;;;13.90;99.90;;;;;;5031515;28;20040;-90
2022/10/25 02:33:55;;;;;;;13.57;1.85;;;13.90;99.90;;;;;;5029737;28;20049;-91
2022/10/25 02:36:23;;;;;;;22.63;2.67;;;13.80;99.90;;;;;;5030836;28;20494;-91
2022/10/25 02:38:50;;;;;;;17.88;2.47;;;13.90;99.90;;;;;;5024665;28;20029;-91
2022/10/25 02:41:17;;;;;;;9.85;2.00;;;13.90;99.90;;;;;;5022986;28;20124;-90
2022/10/25 02:43:43;;;;;;;15.57;2.17;;;13.90;99.90;;;;;;5025577;28;20065;-92
2022/10/25 02:46:12;;;;;;;12.68;2.05;;;13.80;99.90;;;;;;5013985;28;20056;-94
2022/10/25 02:48:38;;;;;;;12.07;1.90;;;13.80;99.90;;;;;;5025733;28;20053;-91
2022/10/25 02:51:05;;;;;;;14.32;2.40;;;13.80;99.90;;;;;;5026601;28;20465;-92
2022/10/25 02:53:31;;;;;;;7.53;1.73;;;13.90;99.90;;;;;;5013715;28;20511;-91
2022/10/25 02:56:05;;;;;;;10.65;1.60;;;13.80;99.90;;;;;;5023251;28;20064;-89
2022/10/25 02:58:33;;;;;;;19.48;2.13;;;13.70;99.90;;;;;;5020270;28;20434;-92
2022/10/25 03:00:59;;;;;;;15.43;2.53;;;13.80;99.90;;;;;;5030094;28;20029;-92
2022/10/25 03:03:25;;;;;;;21.05;3.53;;;13.80;99.90;;;;;;5023418;28;20036;-90
2022/10/25 03:05:51;;;;;;;12.52;1.90;;;13.80;99.90;;;;;;5001257;28;20038;-91
2022/10/25 03:08:17;;;;;;;11.43;2.22;;;13.80;99.90;;;;;;5021403;28;20053;-92
2022/10/25 03:10:43;;;;;;;17.70;3.03;;;13.80;99.90;;;;;;5021697;28;20084;-89
2022/10/25 03:13:08;;;;;;;13.98;2.47;;;13.90;99.90;;;;;;5023058;28;20034;-91
2022/10/25 03:15:34;;;;;;;13.38;2.15;;;13.90;99.90;;;;;;5016218;28;20029;-90
2022/10/25 03:18:00;;;;;;;14.00;2.10;;;13.90;99.90;;;;;;5021320;28;20491;-90
2022/10/25 03:20:25;;;;;;;8.68;1.63;;;13.90;99.90;;;;;;5013283;28;20083;-90
2022/10/25 03:22:51;;;;;;;19.15;2.20;;;13.80;99.90;;;;;;5027299;28;20107;-89
2022/10/25 03:25:16;;;;;;;12.88;1.98;;;13.80;99.90;;;;;;5022345;28;20028;-89
2022/10/25 03:27:42;;;;;;;11.13;2.17;;;13.70;99.90;;;;;;5027534;28;20612;-89
2022/10/25 03:30:08;;;;;;;20.02;2.95;;;13.80;99.90;;;;;;5017107;28;20413;-89
2022/10/25 03:32:34;;;;;;;10.75;1.92;;;13.80;99.90;;;;;;5021007;28;20036;-90
2022/10/25 03:34:59;;;;;;;13.15;2.17;;;13.70;99.90;;;;;;5012859;28;20029;-89
2022/10/25 03:37:25;;;;;;;18.35;2.97;;;13.70;99.90;;;;;;5021125;28;20044;-90
2022/10/25 03:39:52;;;;;;;16.52;2.72;;;13.60;99.90;;;;;;5023030;28;20045;-89
2022/10/25 03:42:18;;;;;;;14.75;2.28;;;13.70;99.90;;;;;;5022609;28;20018;-91
2022/10/25 03:44:44;;;;;;;14.02;2.85;;;13.70;99.90;;;;;;5023475;28;20398;-93
2022/10/25 03:47:09;;;;;;;18.20;2.40;;;13.80;99.90;;;;;;5021175;28;20022;-89
2022/10/25 03:49:35;;;;;;;11.55;2.17;;;13.70;99.90;;;;;;5015662;28;20493;-91
2022/10/25 03:52:01;;;;;;;15.93;2.40;;;13.70;99.90;;;;;;5023412;28;20022;-91
2022/10/25 03:54:26;;;;;;;22.80;2.17;;;13.70;99.90;;;;;;5018497;28;20486;-90
2022/10/25 03:56:54;;;;;;;17.92;2.33;;;13.70;99.90;;;;;;5027113;28;20379;-89
2022/10/25 03:59:20;;;;;;;14.10;2.78;;;13.70;99.90;;;;;;5016168;28;20022;-90
2022/10/25 04:01:46;;;;;;;14.00;2.05;;;13.70;99.90;;;;;;5027651;28;20033;-89
2022/10/25 04:04:14;;;;;;;6.55;1.80;;;13.70;99.90;;;;;;5021219;28;20022;-88
2022/10/25 04:06:40;;;;;;;14.95;2.22;;;13.70;99.90;;;;;;5025347;28;20108;-91
2022/10/25 04:09:06;;;;;;;12.70;1.80;;;13.70;99.90;;;;;;5014306;28;20530;-90
2022/10/25 04:11:32;;;;;;;10.25;1.85;;;13.70;99.90;;;;;;5030075;28;20049;-89
2022/10/25 04:13:57;;;;;;;11.68;2.20;;;13.60;99.90;;;;;;5030496;28;20383;-93
2022/10/25 04:16:24;;;;;;;19.48;2.38;;;13.70;99.90;;;;;;5034764;28;20087;-89
2022/10/25 04:18:52;;;;;;;14.45;1.88;;;13.70;99.90;;;;;;5027827;28;20068;-90
2022/10/25 04:21:18;;;;;;;9.45;2.20;;;13.70;99.90;;;;;;5032888;28;20036;-91
2022/10/25 04:23:48;;;;;;;9.85;2.38;;;13.70;99.90;;;;;;5031017;28;20037;-90
2022/10/25 04:26:17;;;;;;;21.45;2.67;;;13.80;99.90;;;;;;5033422;28;20108;-91
2022/10/25 04:28:51;;;;;;;10.88;2.05;;;13.70;99.90;;;;;;5028318;28;20473;-90
2022/10/25 04:31:17;;;;;;;22.30;2.50;;;13.70;99.90;;;;;;5027472;28;20097;-92
2022/10/25 04:33:46;;;;;;;14.35;2.45;;;13.70;99.90;;;;;;5031652;28;20088;-93
2022/10/25 04:36:12;;;;;;;16.45;3.33;;;13.70;99.90;;;;;;5033509;28;20025;-91
2022/10/25 04:38:37;;;;;;;18.58;2.65;;;13.70;99.90;;;;;;5022664;28;20025;-89
2022/10/25 04:41:03;;;;;;;7.82;1.90;;;13.70;99.90;;;;;;5029587;28;20032;-91
2022/10/25 04:43:29;;;;;;;12.98;1.90;;;13.70;99.90;;;;;;5027036;28;20105;-90
2022/10/25 04:46:01;;;;;;;15.35;2.17;;;13.70;99.90;;;;;;5029449;28;20071;-92
2022/10/25 04:48:26;;;;;;;10.73;1.85;;;13.70;99.90;;;;;;5020651;28;20390;-90
2022/10/25 04:50:52;;;;;;;21.92;3.05;;;13.70;99.90;;;;;;5025433;28;20025;-91
2022/10/25 04:53:17;;;;;;;8.57;2.17;;;13.70;99.90;;;;;;5020694;28;20120;-93
2022/10/25 04:55:43;;;;;;;23.92;2.70;;;13.70;99.90;;;;;;5025114;28;20038;-90
2022/10/25 04:58:09;;;;;;;12.32;2.00;;;13.70;99.90;;;;;;5019541;28;20036;-90
2022/10/25 05:00:35;;;;;;;18.27;3.17;;;13.60;99.90;;;;;;5029408;28;20080;-91
2022/10/25 05:03:00;;;;;;;9.98;2.08;;;13.60;99.90;;;;;;5016699;28;20061;-90
2022/10/25 05:05:26;;;;;;;7.53;2.00;;;13.60;99.90;;;;;;5022278;28;20022;-91
2022/10/25 05:07:51;;;;;;;24.92;2.17;;;13.60;99.90;;;;;;5029288;28;20133;-95
2022/10/25 05:10:17;;;;;;;11.25;2.33;;;13.60;99.90;;;;;;5031896;28;20116;-91
2022/10/25 05:12:43;;;;;;;14.10;2.20;;;13.60;99.90;;;;;;5015026;28;20038;-92
2022/10/25 05:15:09;;;;;;;16.33;2.60;;;13.70;99.90;;;;;;5026027;28;20467;-92
2022/10/25 05:17:34;;;;;;;17.33;2.20;;;13.70;99.90;;;;;;5028396;28;20022;-91
2022/10/25 05:20:00;;;;;;;7.18;1.80;;;13.70;99.90;;;;;;5028083;28;20025;-91
2022/10/25 05:22:26;;;;;;;13.23;1.85;;;13.70;99.90;;;;;;5031483;28;20057;-90
2022/10/25 05:24:51;;;;;;;18.30;2.60;;;13.70;99.90;;;;;;5018531;28;20025;-93
2022/10/25 05:27:17;;;;;;;13.65;2.25;;;13.70;99.90;;;;;;5027676;28;20026;-91
2022/10/25 05:29:43;;;;;;;7.97;1.75;;;13.60;99.90;;;;;;5030093;28;20036;-91
2022/10/25 05:32:09;;;;;;;15.73;2.25;;;13.60;99.90;;;;;;5030374;28;20141;-91
2022/10/25 05:34:34;;;;;;;19.17;1.98;;;13.60;99.90;;;;;;5027560;28;20060;-91
2022/10/25 05:37:00;;;;;;;10.48;1.83;;;13.60;99.90;;;;;;5028582;28;20032;-91
2022/10/25 05:39:26;;;;;;;11.60;1.88;;;13.50;99.90;;;;;;5015630;28;20022;-92
2022/10/25 05:41:52;;;;;;;16.35;1.90;;;13.60;99.90;;;;;;5022785;28;20030;-90
2022/10/25 05:44:17;;;;;;;13.82;2.17;;;13.50;99.90;;;;;;5027176;28;20057;-90
2022/10/25 05:46:43;;;;;;;10.27;2.03;;;13.60;99.90;;;;;;5022761;28;20040;-90
2022/10/25 05:49:10;;;;;;;5.90;1.65;;;13.50;99.90;;;;;;5028084;28;20092;-92
2022/10/25 05:51:36;;;;;;;24.00;2.63;;;13.50;99.90;;;;;;5031599;28;20307;-92
2022/10/25 05:54:09;;;;;;;7.13;1.73;;;13.50;99.90;;;;;;5021095;28;20038;-89
2022/10/25 05:56:35;;;;;;;12.23;2.05;;;13.50;99.90;;;;;;5030510;28;20033;-91
2022/10/25 05:59:07;;;;;;;13.40;2.00;;;13.50;99.90;;;;;;5022632;28;20112;-91
2022/10/25 06:01:34;;;;;;;8.60;1.60;;;13.60;99.90;;;;;;5032141;28;20570;-91
2022/10/25 06:03:59;;;;;;;24.23;2.53;;;13.60;99.90;;;;;;5020901;28;20041;-92
2022/10/25 06:06:25;;;;;;;10.88;2.35;;;13.60;99.90;;;;;;5029313;28;20037;-91
2022/10/25 06:08:58;;;;;;;17.83;2.10;;;13.60;99.90;;;;;;5026693;28;20026;-90
2022/10/25 06:11:26;;;;;;;7.03;1.90;;;13.50;99.90;;;;;;5024529;28;20124;-92
2022/10/25 06:13:52;;;;;;;10.85;1.75;;;13.60;99.90;;;;;;5025474;28;20506;-89
2022/10/25 06:16:19;;;;;;;9.25;1.95;;;13.60;99.90;;;;;;5032468;28;20051;-93
2022/10/25 06:18:45;;;;;;;14.98;2.50;;;13.70;99.90;;;;;;5031217;28;20033;-91
2022/10/25 06:21:13;;;;;;;6.38;1.48;;;13.70;99.90;;;;;;5031060;28;20040;-92
2022/10/25 06:23:39;;;;;;;8.52;1.90;;;13.70;99.90;;;;;;5007304;28;20021;-93
2022/10/25 06:26:11;;;;;;;7.90;2.05;;;13.70;99.90;;;;;;5028499;28;20135;-91
2022/10/25 06:28:37;;;;;;;11.55;2.15;;;13.80;99.90;;;;;;5022565;28;20033;-91
2022/10/25 06:31:03;;;;;;;13.93;2.20;;;13.80;99.90;;;;;;5022180;28;20029;-90
2022/10/25 06:33:29;;;;;;;14.57;2.50;;;13.70;99.90;;;;;;5029034;28;20041;-92
2022/10/25 06:36:00;;;;;;;8.90;2.10;;;13.80;99.90;;;;;;5022926;28;20037;-90
2022/10/25 06:38:26;;;;;;;11.82;2.28;;;13.70;99.90;;;;;;5026891;28;20475;-93
2022/10/25 06:40:58;;;;;;;24.58;2.10;;;13.70;99.90;;;;;;5024421;28;20025;-93
2022/10/25 06:43:24;;;;;;;12.02;2.15;;;13.70;99.90;;;;;;5022310;28;20511;-91
2022/10/25 06:45:49;;;;;;;13.95;2.33;;;13.70;99.90;;;;;;5019188;28;20040;-92
2022/10/25 06:48:15;;;;;;;10.65;1.65;;;13.70;99.90;;;;;;5028522;28;20036;-92
2022/10/25 06:50:43;;;;;;;14.18;1.92;;;13.70;99.90;;;;;;5021979;28;20030;-91
2022/10/25 06:53:09;;;;;;;21.83;3.95;;;13.80;99.90;;;;;;5019758;28;20124;-96
2022/10/25 06:55:34;;;;;;;14.63;2.00;;;13.70;99.90;;;;;;5018704;28;20456;-91
2022/10/25 06:58:00;;;;;;;8.82;1.58;;;13.80;99.90;;;;;;5025759;28;20026;-91
2022/10/25 07:00:26;;;;;;;11.27;2.35;;;13.70;99.90;;;;;;5020317;28;20049;-94
2022/10/25 07:02:56;;;;;;;13.18;2.00;;;13.70;99.90;;;;;;5029930;28;20037;-93
2022/10/25 07:05:22;;;;;;;10.77;1.98;;;13.70;99.90;;;;;;5005028;28;20087;-93
2022/10/25 07:07:48;;;;;;;13.23;1.77;;;13.70;99.90;;;;;;5025367;28;20029;-93
2022/10/25 07:10:13;;;;;;;23.23;2.40;;;13.70;99.90;;;;;;5024160;28;20025;-92
2022/10/25 07:12:39;;;;;;;11.07;2.40;;;13.60;99.90;;;;;;5023713;28;20388;-92
2022/10/25 07:15:05;;;;;;;8.73;1.40;;;13.60;99.90;;;;;;5018342;28;20501;-92
2022/10/25 07:17:31;;;;;;;17.95;2.75;;;13.60;99.90;;;;;;5023050;28;20040;-91
2022/10/25 07:19:57;;;;;;;10.80;2.30;;;13.60;99.90;;;;;;5024040;28;20029;-93
2022/10/25 07:22:23;;;;;;;12.77;1.67;;;13.70;99.90;;;;;;5021795;28;20021;-92
2022/10/25 07:24:49;;;;;;;10.93;1.85;;;13.60;99.90;;;;;;5022922;28;20033;-93
2022/10/25 07:27:15;;;;;;;9.23;1.88;;;13.70;99.90;;;;;;5026916;28;20133;-93
2022/10/25 07:29:41;;;;;;;27.25;4.45;;;13.70;99.90;;;;;;5024187;28;20056;-92
2022/10/25 07:32:08;;;;;;;12.40;2.05;;;13.80;99.90;;;;;;5019956;28;20131;-94
2022/10/25 07:34:33;;;;;;;15.57;2.08;;;13.80;99.90;;;;;;5026184;28;20041;-95
2022/10/25 07:36:59;;;;;;;11.45;2.13;;;13.80;99.90;;;;;;5028550;28;20037;-90
2022/10/25 07:39:25;;;;;;;26.88;3.08;;;13.80;99.90;;;;;;5026502;28;20032;-93
2022/10/25 07:41:52;;;;;;;14.65;2.53;;;13.80;99.90;;;;;;5024602;28;20026;-90
2022/10/25 07:44:19;;;;;;;9.82;1.73;;;13.90;99.90;;;;;;5027102;28;20026;-91
2022/10/25 07:46:44;;;;;;;9.10;1.50;;;14.00;99.90;;;;;;5024240;28;20506;-91
2022/10/25 07:49:13;;;;;;;12.05;1.60;;;14.10;99.90;;;;;;5024868;28;20061;-91
2022/10/25 07:51:39;;;;;;;11.13;1.92;;;14.10;99.90;;;;;;5031253;28;20497;-92
2022/10/25 07:54:04;;;;;;;15.60;2.63;;;14.10;99.90;;;;;;5027107;28;20068;-91
2022/10/25 07:56:30;;;;;;;10.02;1.80;;;14.20;99.90;;;;;;5028173;28;20116;-90
2022/10/25 07:58:56;;;;;;;9.00;2.20;;;14.30;99.90;;;;;;5023882;28;20031;-93
2022/10/25 08:01:26;;;;;;;17.13;2.17;;;14.30;99.90;;;;;;5019409;28;20212;-93
2022/10/25 08:03:53;;;;;;;7.85;1.45;;;14.40;99.90;;;;;;5024497;28;20113;-92
2022/10/25 08:06:20;;;;;;;8.27;1.58;;;14.40;99.90;;;;;;5030538;28;20118;-93
2022/10/25 08:08:47;;;;;;;7.22;2.50;;;14.40;99.90;;;;;;5028207;28;20376;-94
2022/10/25 08:11:12;;;;;;;8.10;2.15;;;14.40;99.90;;;;;;5031461;28;20046;-93
2022/10/25 08:13:39;;;;;;;10.25;2.63;;;14.40;99.90;;;;;;5008824;28;20052;-93
2022/10/25 08:16:06;;;;;;;7.70;1.63;;;14.40;99.90;;;;;;5025124;28;20112;-93
2022/10/25 08:18:33;;;;;;;16.55;2.15;;;14.40;99.90;;;;;;5028840;28;20041;-92
2022/10/25 08:21:02;;;;;;;12.73;1.75;;;14.20;99.90;;;;;;5022314;28;20478;-92
2022/10/25 08:23:30;;;;;;;5.53;1.05;;;14.30;99.90;;;;;;5030345;28;20037;-93
2022/10/25 08:25:56;;;;;;;7.15;1.20;;;14.20;99.90;;;;;;5024264;28;20033;-93
2022/10/25 08:28:21;;;;;;;6.43;1.33;;;14.20;99.90;;;;;;5027921;28;20391;-92
2022/10/25 08:30:47;;;;;;;1.83;1.10;;;14.20;99.90;;;;;;5027782;28;20029;-90
2022/10/25 08:33:12;;;;;;;5.15;1.30;;;14.20;99.90;;;;;;5032327;28;20037;-92
2022/10/25 08:35:38;;;;;;;6.07;1.50;;;14.20;99.90;;;;;;5027952;28;20030;-93
2022/10/25 08:38:04;;;;;;;15.50;1.42;;;14.20;99.90;;;;;;5032477;28;20474;-92
2022/10/25 08:40:49;;;;;;;4.18;1.23;;;14.20;99.90;;;;;;5026800;28;20032;-90
2022/10/25 08:43:38;;;;;;;5.43;1.83;;;14.20;99.90;;;;;;5023921;28;20037;-93
2022/10/25 08:46:12;;;;;;;7.93;1.65;;;14.20;99.90;;;;;;5027330;28;20034;-95
2022/10/25 08:48:44;;;;;;;7.20;1.45;;;14.20;99.90;;;;;;5026862;28;20029;-93
2022/10/25 08:51:33;;;;;;;8.30;1.88;;;14.10;99.90;;;;;;5025217;28;20033;-92
2022/10/25 08:54:03;;;;;;;7.35;1.50;;;14.10;99.90;;;;;;5018262;28;20034;-93
2022/10/25 08:56:30;;;;;;;5.13;1.30;;;14.10;99.90;;;;;;5030764;28;20040;-93
2022/10/25 08:58:59;;;;;;;6.68;1.70;;;14.10;99.90;;;;;;5024893;28;20037;-93
2022/10/25 09:01:37;;;;;;;5.70;1.58;;;14.10;99.90;;;;;;5029698;28;20037;-92
2022/10/25 09:04:03;;;;;;;6.35;1.00;;;14.10;99.90;;;;;;5021705;28;20045;-95
2022/10/25 09:06:43;;;;;;;6.43;1.27;;;14.00;99.90;;;;;;5028756;28;20034;-93
2022/10/25 09:09:41;;;;;;;11.43;1.27;;;13.90;99.90;;;;;;5024998;28;20033;-91
2022/10/25 09:12:15;;;;;;;7.72;1.73;;;13.90;99.90;;;;;;5027420;28;20402;-91
2022/10/25 09:15:02;;;;;;;9.02;1.38;;;13.90;99.90;;;;;;5023888;28;20033;-91
2022/10/25 09:17:49;;;;;;;4.78;1.13;;;13.80;99.90;;;;;;5023787;28;20022;-90
2022/10/25 09:20:31;;;;;;;4.15;0.93;;;13.70;99.90;;;;;;5025918;28;20452;-90
2022/10/25 09:22:59;;;;;;;1.05;0.85;;;13.70;99.90;;;;;;5029582;28;20026;-91
2022/10/25 09:25:59;;;;;;;6.22;1.00;;;13.60;99.90;;;;;;5022953;28;20029;-91
2022/10/25 09:28:54;;;;;;;10.25;1.20;;;13.70;99.90;;;;;;5021625;28;20042;-92
2022/10/25 09:31:24;;;;;;;1.63;0.80;;;13.70;99.90;;;;;;5022617;28;20026;-90
2022/10/25 09:33:56;;;;;;;2.92;0.68;;;13.60;99.90;;;;;;5016439;28;20242;-91
2022/10/25 09:36:22;;;;;;;2.92;0.70;;;13.60;99.90;;;;;;5026587;28;20430;-91
2022/10/25 09:38:56;;;;;;;2.65;1.00;;;13.70;99.90;;;;;;5026017;28;20116;-91
2022/10/25 09:41:29;;;;;;;2.92;0.77;;;13.70;99.90;;;;;;5004643;28;20359;-92
2022/10/25 09:44:07;;;;;;;2.88;0.90;;;13.60;99.90;;;;;;5016770;28;20502;-91
2022/10/25 09:46:42;;;;;;;4.07;1.33;;;13.60;99.90;;;;;;5027117;28;20037;-90
2022/10/25 09:49:19;;;;;;;8.43;1.42;;;13.70;99.90;;;;;;5025022;28;20034;-92
2022/10/25 09:51:59;;;;;;;2.83;0.90;;;13.60;99.90;;;;;;5025673;28;20033;-91
2022/10/25 09:54:50;;;;;;;1.88;0.77;;;13.70;99.90;;;;;;5021841;28;20428;-91
2022/10/25 09:57:15;;;;;;;3.00;0.90;;;13.70;99.90;;;;;;5031956;28;20029;-91
2022/10/25 09:59:42;;;;;;;7.55;1.50;;;13.70;99.90;;;;;;5024691;28;20606;-91
2022/10/25 10:02:22;;;;;;;4.90;1.40;;;13.70;99.90;;;;;;5016546;28;20037;-92
2022/10/25 10:04:48;;;;;;;4.07;0.85;;;13.80;99.90;;;;;;5024427;28;20029;-91
2022/10/25 10:07:21;;;;;;;10.82;1.17;;;13.80;99.90;;;;;;5028915;28;20041;-91
2022/10/25 10:09:49;;;;;;;6.43;1.20;;;13.90;99.90;;;;;;5001907;28;20033;-91
2022/10/25 10:12:31;;;;;;;3.35;2.00;;;14.00;99.90;;;;;;5027258;28;20050;-92
2022/10/25 10:15:05;;;;;;;4.30;1.15;;;14.00;99.90;;;;;;5013063;28;20042;-92
2022/10/25 10:17:31;;;;;;;10.57;1.80;;;14.10;99.90;;;;;;5023335;28;20044;-90
2022/10/25 10:20:14;;;;;;;2.80;0.95;;;14.20;99.90;;;;;;5019702;28;20029;-92
2022/10/25 10:22:51;;;;;;;3.03;0.85;;;14.30;99.90;;;;;;5026064;28;20034;-91
2022/10/25 10:25:21;;;;;;;6.65;1.08;;;14.30;99.90;;;;;;5009925;28;20026;-91
2022/10/25 10:27:49;;;;;;;9.93;1.30;;;14.30;99.90;;;;;;5016110;28;20044;-90
2022/10/25 10:30:23;;;;;;;3.45;1.00;;;14.30;99.90;;;;;;5015949;28;20579;-91
2022/10/25 10:32:54;;;;;;;6.20;1.60;;;14.30;99.90;;;;;;5019767;28;20406;-92
2022/10/25 10:35:35;;;;;;;9.30;1.20;;;14.30;99.90;;;;;;5021333;28;20382;-93
2022/10/25 10:38:27;;;;;;;3.85;1.15;;;14.40;99.90;;;;;;5025091;28;20021;-90
2022/10/25 10:41:14;;;;;;;4.78;1.15;;;14.40;99.90;;;;;;5025689;28;20059;-91
2022/10/25 10:43:40;;;;;;;5.43;1.27;;;14.40;99.90;;;;;;5015925;28;20037;-93
2022/10/25 10:46:24;;;;;;;6.68;1.23;;;14.50;99.90;;;;;;5026359;28;20527;-90
2022/10/25 10:48:56;;;;;;;8.43;1.40;;;14.50;99.90;;;;;;5017500;28;20057;-94
2022/10/25 10:51:41;;;;;;;8.95;2.55;;;14.60;99.90;;;;;;5026800;28;20501;-93
2022/10/25 10:54:16;;;;;;;9.82;1.50;;;14.60;99.90;;;;;;5023101;28;20037;-93
2022/10/25 10:56:42;;;;;;;9.93;1.40;;;14.70;99.90;;;;;;5022548;28;20033;-94
2022/10/25 10:59:34;;;;;;;5.45;1.30;;;14.70;99.90;;;;;;5027549;28;20399;-92
2022/10/25 11:02:24;;;;;;;8.20;1.58;;;14.80;99.90;;;;;;5026029;28;20044;-90
2022/10/25 11:04:54;;;;;;;11.00;2.28;;;14.90;99.90;;;;;;5020955;28;20519;-90
2022/10/25 11:07:26;;;;;;;8.93;1.50;;;14.90;99.90;;;;;;5023458;28;20474;-91
2022/10/25 11:09:51;;;;;;;12.60;2.00;;;14.90;99.90;;;;;;5022224;28;20034;-92
2022/10/25 11:12:17;;;;;;;11.02;2.00;;;15.00;99.90;;;;;;5019410;28;20048;-92
2022/10/25 11:14:43;;;;;;;9.40;1.80;;;15.00;99.90;;;;;;5014180;28;20467;-93
2022/10/25 11:17:12;;;;;;;7.10;1.35;;;15.00;99.90;;;;;;5017759;28;20060;-93
2022/10/25 11:20:14;;;;;;;4.70;1.58;;;15.10;99.90;;;;;;5024342;28;20018;-91
2022/10/25 11:22:46;;;;;;;8.95;1.58;;;15.10;99.90;;;;;;5023934;28;21337;-90
2022/10/25 11:25:27;;;;;;;10.95;1.52;;;15.20;99.90;;;;;;5023900;28;20403;-92
2022/10/25 11:27:59;;;;;;;7.90;1.58;;;15.20;99.90;;;;;;5028777;28;20036;-95
2022/10/25 11:30:35;;;;;;;6.65;1.95;;;15.20;99.90;;;;;;5025894;28;20025;-94
2022/10/25 11:33:15;;;;;;;3.38;1.33;;;15.20;99.90;;;;;;5022003;28;20029;-91
2022/10/25 11:36:08;;;;;;;14.57;2.17;;;15.20;99.90;;;;;;5022140;28;20033;-95
2022/10/25 11:38:34;;;;;;;12.38;1.52;;;15.30;99.90;;;;;;5022895;28;20030;-90
2022/10/25 11:41:29;;;;;;;4.22;1.42;;;15.30;99.90;;;;;;5020542;28;20028;-90
2022/10/25 11:44:20;;;;;;;10.23;2.70;;;15.30;99.90;;;;;;5023994;28;20057;-92
2022/10/25 11:47:00;;;;;;;5.20;1.45;;;15.40;99.90;;;;;;5027103;28;20039;-91
2022/10/25 11:49:54;;;;;;;7.57;1.35;;;15.40;99.90;;;;;;5025652;28;20030;-91
2022/10/25 11:52:41;;;;;;;7.75;1.30;;;15.40;99.90;;;;;;5021885;28;20030;-94
2022/10/25 11:55:16;;;;;;;10.35;1.42;;;15.50;99.90;;;;;;5025752;28;20055;-93
2022/10/25 11:57:53;;;;;;;4.65;1.40;;;15.50;99.90;;;;;;5026065;28;20459;-93
2022/10/25 12:00:30;;;;;;;7.53;1.40;;;15.50;99.90;;;;;;5019905;28;20022;-95
2022/10/25 12:03:23;;;;;;;10.77;1.33;;;15.50;99.90;;;;;;5025663;28;20026;-91
2022/10/25 12:06:06;;;;;;;5.30;1.50;;;15.60;99.90;;;;;;5026579;28;20030;-93
2022/10/25 12:08:41;;;;;;;17.10;2.45;;;15.60;99.90;;;;;;5027640;28;20025;-91
2022/10/25 12:11:13;;;;;;;8.75;1.50;;;15.50;99.90;;;;;;4995929;28;20061;-92
2022/10/25 12:13:44;;;;;;;4.90;1.60;;;15.50;99.90;;;;;;5018002;28;20072;-94
2022/10/25 12:16:14;;;;;;;9.25;1.83;;;15.50;99.90;;;;;;5021955;28;20041;-92
2022/10/25 12:18:45;;;;;;;8.55;2.33;;;15.60;99.90;;;;;;5025011;28;20504;-94
2022/10/25 12:21:27;;;;;;;14.60;1.45;;;15.50;99.90;;;;;;5023237;28;20033;-91
2022/10/25 12:23:54;;;;;;;6.78;1.65;;;15.50;99.90;;;;;;5028549;28;20033;-94
2022/10/25 12:26:29;;;;;;;8.80;2.50;;;15.60;99.90;;;;;;5011843;28;20030;-95
2022/10/25 12:29:00;;;;;;;4.85;1.60;;;15.60;99.90;;;;;;5026363;28;20022;-90
2022/10/25 12:31:37;;;;;;;9.50;1.80;;;15.70;99.90;;;;;;5014758;28;20111;-94
2022/10/25 12:34:20;;;;;;;13.55;2.58;;;15.70;99.90;;;;;;5033135;28;20026;-92
2022/10/25 12:36:54;;;;;;;7.90;1.98;;;15.80;99.90;;;;;;5029075;28;20036;-93
2022/10/25 12:39:29;;;;;;;8.07;1.60;;;15.90;99.90;;;;;;5030234;28;20018;-92
2022/10/25 12:42:01;;;;;;;10.73;1.35;;;16.00;99.90;;;;;;5017692;28;20065;-93
2022/10/25 12:44:36;;;;;;;4.68;1.13;;;16.10;99.90;;;;;;5023566;28;20038;-93
2022/10/25 12:47:08;;;;;;;5.63;0.90;;;16.20;99.90;;;;;;5033039;28;20410;-94
2022/10/25 12:49:51;;;;;;;4.32;1.30;;;16.20;99.90;;;;;;5021016;28;20048;-93
2022/10/25 12:52:29;;;;;;;10.00;1.35;;;16.30;99.90;;;;;;5031158;28;20033;-92
2022/10/25 12:55:28;;;;;;;7.07;1.30;;;16.40;99.90;;;;;;5032475;28;20030;-92
2022/10/25 12:58:03;;;;;;;4.13;1.25;;;16.40;99.90;;;;;;5021492;28;20088;-94
2022/10/25 13:00:40;;;;;;;11.70;1.55;;;16.40;99.90;;;;;;5028902;28;20486;-95
2022/10/25 13:03:30;;;;;;;5.68;1.00;;;16.40;99.90;;;;;;5025628;28;20390;-91
2022/10/25 13:06:02;;;;;;;6.75;1.25;;;16.40;99.90;;;;;;5024877;28;20041;-92